Time;durP1;ratioP1;P1;durP2;ratioP2;P2;SDS_P1;SDS_P2;PMS_P1;PMS_P2;Temp;Humidity;BMP_temperature;BMP_pressure;BME280_temperature;BME280_humidity;BME280_pressure;Samples;Min_cycle;Max_cycle;Signal;HPM_P1;HPM_P2
2022/11/16 00:01:23;;;;;;;4.13;2.13;;;11.50;99.90;;;;;;5006727;28;20114;-68
2022/11/16 00:03:52;;;;;;;5.28;2.85;;;11.40;99.90;;;;;;5004899;28;20033;-68
2022/11/16 00:06:19;;;;;;;5.68;1.85;;;11.40;99.90;;;;;;5003913;28;20042;-68
2022/11/16 00:09:21;;;;;;;7.68;2.53;;;11.40;99.90;;;;;;5004443;28;20026;-67
2022/11/16 00:11:37;;;;;;;5.10;2.40;;;11.40;99.90;;;;;;5007500;28;20045;-67
2022/11/16 00:14:03;;;;;;;1.55;1.20;;;11.40;99.90;;;;;;5004432;28;20060;-67
2022/11/16 00:16:29;;;;;;;3.25;2.05;;;11.40;99.90;;;;;;5002641;28;20065;-68
2022/11/16 00:19:02;;;;;;;2.72;1.75;;;11.30;99.90;;;;;;5004424;28;20065;-68
2022/11/16 00:21:29;;;;;;;8.38;2.38;;;11.30;99.90;;;;;;4986458;28;20441;-67
2022/11/16 00:23:54;;;;;;;9.18;2.22;;;11.30;99.90;;;;;;5004512;28;20029;-68
2022/11/16 00:26:21;;;;;;;7.32;2.08;;;11.30;99.90;;;;;;5007344;28;20125;-67
2022/11/16 00:28:48;;;;;;;4.57;2.30;;;11.30;99.90;;;;;;5004101;28;20033;-67
2022/11/16 00:31:14;;;;;;;4.50;2.25;;;11.20;99.90;;;;;;5007374;28;20497;-68
2022/11/16 00:33:40;;;;;;;2.28;1.90;;;11.20;99.90;;;;;;5019400;28;20033;-67
2022/11/16 00:36:10;;;;;;;3.15;1.67;;;11.20;99.90;;;;;;5006923;28;20082;-68
2022/11/16 00:38:37;;;;;;;4.50;2.17;;;11.10;99.90;;;;;;5003632;28;20157;-67
2022/11/16 00:41:02;;;;;;;6.38;2.83;;;11.20;99.90;;;;;;5003295;28;20053;-67
2022/11/16 00:43:28;;;;;;;2.72;1.80;;;11.10;99.90;;;;;;5008402;28;20068;-67
2022/11/16 00:45:54;;;;;;;6.85;2.92;;;11.10;99.90;;;;;;5003935;28;20041;-67
2022/11/16 00:48:20;;;;;;;3.08;1.67;;;11.10;99.90;;;;;;5006455;28;20065;-67
2022/11/16 00:50:46;;;;;;;6.40;2.50;;;11.10;99.90;;;;;;5003893;28;20022;-67
2022/11/16 00:53:14;;;;;;;7.68;2.25;;;11.10;99.90;;;;;;5006791;28;20042;-68
2022/11/16 00:55:39;;;;;;;5.82;2.53;;;11.00;99.90;;;;;;5003673;28;20048;-68
2022/11/16 00:58:05;;;;;;;4.70;2.35;;;11.00;99.90;;;;;;5006463;28;20025;-68
2022/11/16 01:00:31;;;;;;;3.88;2.00;;;11.00;99.90;;;;;;5002690;28;20060;-67
2022/11/16 01:02:57;;;;;;;7.90;2.60;;;11.00;99.90;;;;;;5008042;28;20023;-68
2022/11/16 01:05:23;;;;;;;3.17;1.70;;;11.00;99.90;;;;;;5003623;28;20049;-68
2022/11/16 01:07:49;;;;;;;4.28;2.72;;;11.00;99.90;;;;;;5004376;28;20474;-68
2022/11/16 01:10:19;;;;;;;2.55;1.77;;;11.00;99.90;;;;;;5003407;28;20052;-68
2022/11/16 01:12:48;;;;;;;4.22;2.20;;;11.00;99.90;;;;;;5007677;28;20449;-67
2022/11/16 01:15:15;;;;;;;3.15;2.38;;;10.90;99.90;;;;;;5001854;28;20066;-67
2022/11/16 01:17:42;;;;;;;10.30;1.83;;;10.90;99.90;;;;;;5006383;28;20026;-68
2022/11/16 01:20:14;;;;;;;5.60;2.28;;;10.90;99.90;;;;;;5003059;28;20105;-67
2022/11/16 01:22:40;;;;;;;6.72;3.28;;;10.90;99.90;;;;;;5006314;28;20030;-68
2022/11/16 01:25:07;;;;;;;6.40;3.47;;;10.90;99.90;;;;;;5002164;28;20030;-68
2022/11/16 01:27:33;;;;;;;4.15;1.83;;;10.90;99.90;;;;;;5008363;28;20117;-68
2022/11/16 01:29:59;;;;;;;8.10;2.65;;;10.90;99.90;;;;;;5002272;28;20121;-68
2022/11/16 01:32:25;;;;;;;8.63;3.00;;;10.90;99.90;;;;;;5009304;28;20040;-68
2022/11/16 01:34:50;;;;;;;6.47;2.47;;;10.90;99.90;;;;;;5001438;28;20037;-68
2022/11/16 01:37:17;;;;;;;4.47;2.20;;;10.90;99.90;;;;;;5008980;28;20042;-68
2022/11/16 01:39:43;;;;;;;5.60;2.60;;;10.90;99.90;;;;;;4997097;28;20041;-68
2022/11/16 01:42:20;;;;;;;5.72;2.53;;;10.90;99.90;;;;;;5011327;28;20026;-68
2022/11/16 01:44:46;;;;;;;5.13;2.88;;;10.90;99.90;;;;;;4996700;28;20035;-68
2022/11/16 01:47:15;;;;;;;8.82;3.10;;;10.90;99.90;;;;;;5011205;28;20641;-68
2022/11/16 01:49:48;;;;;;;6.60;4.05;;;10.90;99.90;;;;;;4998004;28;20045;-67
2022/11/16 01:52:21;;;;;;;3.97;2.58;;;10.90;99.90;;;;;;5009402;28;20034;-67
2022/11/16 01:54:51;;;;;;;5.28;2.40;;;10.90;99.90;;;;;;4998125;28;20034;-68
2022/11/16 01:57:24;;;;;;;5.38;2.85;;;10.90;99.90;;;;;;5010089;28;20109;-68
2022/11/16 01:59:56;;;;;;;4.75;2.67;;;10.90;99.90;;;;;;4996900;28;20038;-68
2022/11/16 02:02:22;;;;;;;3.50;2.30;;;10.90;99.90;;;;;;5009330;28;20084;-68
2022/11/16 02:04:51;;;;;;;5.70;2.72;;;10.80;99.90;;;;;;5000686;28;20076;-68
2022/11/16 02:11:29;;;;;;;8.68;3.53;;;10.80;99.90;;;;;;4997191;28;20037;-68
2022/11/16 02:14:06;;;;;;;5.45;3.20;;;10.80;99.90;;;;;;4987656;28;20129;-68
2022/11/16 02:17:05;;;;;;;7.90;2.72;;;10.80;99.90;;;;;;4995514;28;20038;-68
2022/11/16 02:20:08;;;;;;;7.53;3.17;;;10.80;99.90;;;;;;4998735;28;20044;-68
2022/11/16 02:23:07;;;;;;;9.63;3.28;;;10.80;99.90;;;;;;4974012;28;20498;-67
2022/11/16 02:26:19;;;;;;;5.70;3.55;;;10.80;99.90;;;;;;4999270;28;20038;-67
2022/11/16 02:29:18;;;;;;;4.70;3.30;;;10.80;99.90;;;;;;4996040;28;20030;-67
2022/11/16 02:32:44;;;;;;;3.75;2.20;;;10.80;99.90;;;;;;4992033;28;20043;-67
2022/11/16 02:37:55;;;;;;;;;;;10.80;99.90;;;;;;4992072;28;20486;-69
2022/11/16 02:40:25;;;;;;;6.18;3.20;;;10.80;99.90;;;;;;4986397;28;20364;-68
2022/11/16 02:42:58;;;;;;;5.40;3.05;;;10.80;99.90;;;;;;4998399;28;20045;-68
2022/11/16 02:45:30;;;;;;;8.30;3.60;;;10.70;99.90;;;;;;5001244;28;20034;-68
2022/11/16 02:48:02;;;;;;;6.10;3.03;;;10.70;99.90;;;;;;5006190;28;20049;-68
2022/11/16 02:50:31;;;;;;;10.75;3.38;;;10.80;99.90;;;;;;4997618;28;20030;-68
2022/11/16 02:52:56;;;;;;;10.90;3.88;;;10.80;99.90;;;;;;5005891;28;20035;-68
2022/11/16 02:55:24;;;;;;;10.45;4.15;;;10.80;99.90;;;;;;5002218;28;20397;-70
2022/11/16 02:57:59;;;;;;;7.45;3.45;;;10.80;99.90;;;;;;5000866;28;20030;-68
2022/11/16 03:00:53;;;;;;;10.00;4.65;;;10.80;99.90;;;;;;4994379;28;20113;-68
2022/11/16 03:03:48;;;;;;;4.95;2.90;;;10.80;99.90;;;;;;4996209;28;20126;-69
2022/11/16 03:06:30;;;;;;;9.88;3.30;;;10.80;99.90;;;;;;5003982;28;20038;-68
2022/11/16 03:09:11;;;;;;;12.68;3.13;;;10.80;99.90;;;;;;5013024;28;20141;-69
2022/11/16 03:11:58;;;;;;;5.57;3.85;;;10.80;99.90;;;;;;5006600;28;20089;-69
2022/11/16 03:14:39;;;;;;;5.30;3.25;;;10.70;99.90;;;;;;5003053;28;20042;-69
2022/11/16 03:17:13;;;;;;;4.38;2.78;;;10.70;99.90;;;;;;4993075;28;20059;-69
2022/11/16 03:19:46;;;;;;;8.00;4.63;;;10.70;99.90;;;;;;4984831;28;20039;-69
2022/11/16 03:22:43;;;;;;;5.13;3.13;;;10.60;99.90;;;;;;4989813;28;20574;-69
2022/11/16 03:25:15;;;;;;;6.60;3.17;;;10.60;99.90;;;;;;4992468;28;20489;-69
2022/11/16 03:27:43;;;;;;;;;;;10.60;99.90;;;;;;4993085;28;20197;-69
2022/11/16 03:30:19;;;;;;;6.97;3.92;;;10.60;99.90;;;;;;4988138;28;20894;-69
2022/11/16 03:33:28;;;;;;;8.15;3.08;;;10.60;99.90;;;;;;4988135;28;20040;-69
2022/11/16 03:36:11;;;;;;;9.80;3.55;;;10.60;99.90;;;;;;4995091;28;20046;-69
2022/11/16 03:38:40;;;;;;;3.95;2.80;;;10.50;99.90;;;;;;4987854;28;20053;-69
2022/11/16 03:41:09;;;;;;;5.63;3.60;;;10.50;99.90;;;;;;4984346;28;20026;-69
2022/11/16 03:43:37;;;;;;;9.85;4.18;;;10.60;99.90;;;;;;4986023;28;20030;-70
2022/11/16 03:46:04;;;;;;;10.23;3.30;;;10.50;99.90;;;;;;4984843;28;20466;-69
2022/11/16 03:48:35;;;;;;;5.82;2.97;;;10.50;99.90;;;;;;4986564;28;20398;-70
2022/11/16 03:51:02;;;;;;;10.30;3.03;;;10.50;99.90;;;;;;4987638;28;20038;-69
2022/11/16 03:53:28;;;;;;;9.07;3.25;;;10.60;99.90;;;;;;4983867;28;20042;-70
2022/11/16 03:55:53;;;;;;;8.95;3.45;;;10.60;99.90;;;;;;4997978;28;20056;-70
2022/11/16 03:58:19;;;;;;;5.10;3.50;;;10.50;99.90;;;;;;5000906;28;20049;-69
2022/11/16 04:00:44;;;;;;;5.47;3.40;;;10.50;99.90;;;;;;4997280;28;20470;-70
2022/11/16 04:03:10;;;;;;;7.40;4.32;;;10.60;99.90;;;;;;5004872;28;20037;-69
2022/11/16 04:25:19;;;;;;;8.00;4.03;;;10.60;99.90;;;;;;5003171;28;20033;-70
2022/11/16 04:37:47;;;;;;;9.35;4.45;;;10.60;99.90;;;;;;4995975;28;20541;-70
2022/11/16 04:38:42;;;;;;;11.05;4.13;;;10.60;99.90;;;;;;4996899;28;20046;-69
2022/11/16 04:42:13;;;;;;;9.73;5.45;;;10.60;99.90;;;;;;4998488;28;20067;-70
2022/11/16 04:43:53;;;;;;;13.80;5.00;;;10.60;99.90;;;;;;4985061;28;20056;-70
2022/11/16 04:49:03;;;;;;;10.27;5.55;;;10.60;99.90;;;;;;5003702;28;20030;-69
2022/11/16 04:51:29;;;;;;;8.80;4.63;;;10.60;99.90;;;;;;4995261;28;20085;-69
2022/11/16 04:53:54;;;;;;;10.35;4.43;;;10.60;99.90;;;;;;5006499;28;20509;-69
2022/11/16 04:56:20;;;;;;;8.88;4.45;;;10.60;99.90;;;;;;4993499;28;20111;-70
2022/11/16 04:58:46;;;;;;;11.68;5.88;;;10.70;99.90;;;;;;4986905;28;20085;-70
2022/11/16 05:01:12;;;;;;;13.10;5.35;;;10.70;99.90;;;;;;4987988;28;20766;-70
2022/11/16 05:03:38;;;;;;;9.07;4.50;;;10.70;99.90;;;;;;4987230;28;20034;-69
2022/11/16 05:06:03;;;;;;;15.20;6.75;;;10.70;99.90;;;;;;5003315;28;20022;-69
2022/11/16 05:08:29;;;;;;;8.98;5.03;;;10.70;99.90;;;;;;5011487;28;20045;-68
2022/11/16 05:10:55;;;;;;;9.65;5.38;;;10.70;99.90;;;;;;5000272;28;20117;-70
2022/11/16 05:13:20;;;;;;;12.05;5.75;;;10.70;99.90;;;;;;5005715;28;20041;-69
2022/11/16 05:15:46;;;;;;;11.05;6.15;;;10.70;99.90;;;;;;5001885;28;20045;-69
2022/11/16 05:18:12;;;;;;;9.68;5.47;;;10.70;99.90;;;;;;5004246;28;20034;-69
2022/11/16 05:26:06;;;;;;;14.65;5.75;;;10.80;99.90;;;;;;5000227;28;20069;-69
2022/11/16 05:28:32;;;;;;;17.13;6.05;;;10.80;99.90;;;;;;4989735;28;20462;-69
2022/11/16 05:30:57;;;;;;;8.27;5.00;;;10.80;99.90;;;;;;5002173;28;20101;-69
2022/11/16 05:33:23;;;;;;;10.10;4.97;;;10.80;99.90;;;;;;5011137;28;20069;-69
2022/11/16 05:35:50;;;;;;;12.52;5.28;;;10.80;99.90;;;;;;4999513;28;20074;-69
2022/11/16 05:38:17;;;;;;;10.88;5.80;;;10.80;99.90;;;;;;5011150;28;20030;-68
2022/11/16 05:40:43;;;;;;;9.18;5.45;;;10.80;99.90;;;;;;4999232;28;20041;-69
2022/11/16 05:43:09;;;;;;;7.45;4.07;;;10.70;99.90;;;;;;5009964;28;20030;-69
2022/11/16 05:45:34;;;;;;;10.77;5.70;;;10.80;99.90;;;;;;5000924;28;20037;-69
2022/11/16 05:48:00;;;;;;;11.38;5.10;;;10.70;99.90;;;;;;5009124;28;20034;-69
2022/11/16 05:50:26;;;;;;;11.90;5.93;;;10.70;99.90;;;;;;4998618;28;20042;-70
2022/11/16 05:52:51;;;;;;;10.32;5.32;;;10.80;99.90;;;;;;5009286;28;20034;-68
2022/11/16 05:55:17;;;;;;;11.00;4.60;;;10.80;99.90;;;;;;4993715;28;20117;-69
2022/11/16 05:57:43;;;;;;;11.80;5.65;;;10.90;99.90;;;;;;4992468;28;20034;-70
2022/11/16 06:00:10;;;;;;;10.75;4.82;;;10.90;99.90;;;;;;4999156;28;20512;-70
2022/11/16 06:02:35;;;;;;;18.77;5.43;;;10.90;99.90;;;;;;4995000;28;20030;-68
2022/11/16 06:05:01;;;;;;;10.80;4.97;;;10.90;99.90;;;;;;5002475;28;20033;-68
2022/11/16 06:07:27;;;;;;;9.75;5.57;;;10.90;99.90;;;;;;5009328;28;20037;-69
2022/11/16 06:09:53;;;;;;;9.25;5.68;;;10.90;99.90;;;;;;5002319;28;20038;-69
2022/11/16 06:12:19;;;;;;;10.63;4.95;;;10.90;99.90;;;;;;5009307;28;20065;-69
2022/11/16 06:14:44;;;;;;;13.13;5.38;;;10.90;99.90;;;;;;5002194;28;20500;-70
2022/11/16 06:17:13;;;;;;;11.65;5.10;;;10.90;99.90;;;;;;5007819;28;20033;-69
2022/11/16 06:19:39;;;;;;;11.20;5.90;;;10.90;99.90;;;;;;4988978;28;20030;-70
2022/11/16 06:22:06;;;;;;;11.70;5.88;;;10.90;99.90;;;;;;5000776;28;20136;-71
2022/11/16 06:24:31;;;;;;;9.80;4.90;;;11.00;99.90;;;;;;4996523;28;20034;-70
2022/11/16 06:26:58;;;;;;;10.38;5.35;;;10.90;99.90;;;;;;4999364;28;20026;-69
2022/11/16 06:29:23;;;;;;;9.80;5.60;;;11.00;99.90;;;;;;4988928;28;20064;-73
2022/11/16 06:31:49;;;;;;;10.43;4.93;;;11.00;99.90;;;;;;4998027;28;20666;-72
2022/11/16 06:34:15;;;;;;;10.95;5.35;;;11.00;99.90;;;;;;5001516;28;20035;-72
2022/11/16 06:36:40;;;;;;;7.78;4.38;;;11.00;99.90;;;;;;4998502;28;20101;-72
2022/11/16 06:39:06;;;;;;;12.68;5.32;;;10.90;99.90;;;;;;5009754;28;20041;-70
2022/11/16 06:41:33;;;;;;;6.68;4.03;;;10.90;99.90;;;;;;4998398;28;20057;-71
2022/11/16 06:43:58;;;;;;;10.20;4.68;;;10.90;99.90;;;;;;5009360;28;20479;-70
2022/11/16 06:46:24;;;;;;;14.45;5.57;;;10.90;99.90;;;;;;4994687;28;20026;-70
2022/11/16 06:48:50;;;;;;;8.63;4.40;;;10.80;99.90;;;;;;5001086;28;20022;-72
2022/11/16 06:51:16;;;;;;;12.98;5.78;;;10.80;99.90;;;;;;5001633;28;20637;-71
2022/11/16 06:53:42;;;;;;;12.13;4.70;;;10.80;99.90;;;;;;5011842;28;20072;-72
2022/11/16 06:56:11;;;;;;;7.88;3.90;;;10.80;99.90;;;;;;5001385;28;20039;-75
2022/11/16 06:58:37;;;;;;;9.82;4.75;;;10.70;99.90;;;;;;5008972;28;20037;-76
2022/11/16 07:01:10;;;;;;;9.23;4.75;;;10.70;99.90;;;;;;5004551;28;20056;-75
2022/11/16 07:03:37;;;;;;;10.20;5.28;;;10.80;99.90;;;;;;5010173;28;20036;-75
2022/11/16 07:06:09;;;;;;;11.10;5.63;;;10.70;99.90;;;;;;5000871;28;20090;-75
2022/11/16 07:08:35;;;;;;;15.88;4.70;;;10.70;99.90;;;;;;5010160;28;20417;-77
2022/11/16 07:11:07;;;;;;;9.40;5.10;;;10.70;99.90;;;;;;5006180;28;20053;-76
2022/11/16 07:13:36;;;;;;;10.40;5.53;;;10.60;99.90;;;;;;5009985;28;20044;-77
2022/11/16 07:16:05;;;;;;;13.30;6.05;;;10.60;99.90;;;;;;5003066;28;20029;-77
2022/11/16 07:18:33;;;;;;;11.90;5.68;;;10.50;99.90;;;;;;4989535;28;20045;-77
2022/11/16 07:21:11;;;;;;;9.60;5.25;;;10.50;99.90;;;;;;5000801;28;20493;-76
2022/11/16 07:23:37;;;;;;;14.20;5.68;;;10.50;99.90;;;;;;4994201;28;20510;-73
2022/11/16 07:26:05;;;;;;;11.93;4.70;;;10.50;99.90;;;;;;4986714;28;20029;-72
2022/11/16 07:28:31;;;;;;;10.10;4.65;;;10.50;99.90;;;;;;4996273;28;20066;-73
2022/11/16 07:31:05;;;;;;;13.45;5.82;;;10.50;99.90;;;;;;5001482;28;20068;-78
2022/11/16 07:33:31;;;;;;;10.50;7.05;;;10.50;99.90;;;;;;5008141;28;20444;-72
2022/11/16 07:36:13;;;;;;;11.20;4.93;;;10.60;99.90;;;;;;4997890;28;20065;-73
2022/11/16 07:38:39;;;;;;;8.70;4.68;;;10.60;99.90;;;;;;4997941;28;20038;-72
2022/11/16 07:41:12;;;;;;;13.18;6.18;;;10.60;99.90;;;;;;4995569;28;20129;-72
2022/11/16 07:43:39;;;;;;;15.10;5.63;;;10.70;99.90;;;;;;5001168;28;20026;-72
2022/11/16 07:46:12;;;;;;;14.38;6.10;;;10.80;99.90;;;;;;4999945;28;20116;-75
2022/11/16 07:48:39;;;;;;;14.70;5.88;;;10.80;99.90;;;;;;5001338;28;20101;-72
2022/11/16 07:51:12;;;;;;;12.70;5.63;;;10.90;99.90;;;;;;4981292;28;20668;-73
2022/11/16 07:53:39;;;;;;;10.85;5.57;;;11.00;99.90;;;;;;4980916;28;20049;-73
2022/11/16 07:56:06;;;;;;;7.82;5.10;;;11.10;99.90;;;;;;4997916;28;20036;-73
2022/11/16 07:58:33;;;;;;;12.40;5.90;;;11.00;99.90;;;;;;5007536;28;20022;-71
2022/11/16 08:01:25;;;;;;;16.52;5.22;;;11.10;99.90;;;;;;5002828;28;20040;-72
2022/11/16 08:03:52;;;;;;;9.98;5.90;;;11.20;99.90;;;;;;4995231;28;20038;-72
2022/11/16 08:06:25;;;;;;;8.90;5.47;;;11.30;99.90;;;;;;4985169;28;20030;-72
2022/11/16 08:08:51;;;;;;;9.73;5.07;;;11.30;99.90;;;;;;5004537;28;20497;-72
2022/11/16 08:11:17;;;;;;;8.55;5.20;;;11.20;99.90;;;;;;5003512;28;20046;-72
2022/11/16 08:13:44;;;;;;;5.63;4.30;;;11.30;99.90;;;;;;4998741;28;20494;-73
2022/11/16 08:16:13;;;;;;;12.82;5.15;;;11.30;99.90;;;;;;5008873;28;20375;-73
2022/11/16 08:18:40;;;;;;;6.57;3.20;;;11.30;99.90;;;;;;4991283;28;20038;-72
2022/11/16 08:21:09;;;;;;;9.23;4.45;;;11.30;99.90;;;;;;4981437;28;20026;-71
2022/11/16 08:23:35;;;;;;;5.72;4.00;;;11.20;99.90;;;;;;4995321;28;20030;-71
2022/11/16 08:26:13;;;;;;;9.35;4.25;;;11.10;99.90;;;;;;5003727;28;20026;-71
2022/11/16 08:28:39;;;;;;;11.80;3.67;;;11.20;99.90;;;;;;5008039;28;20121;-72
2022/11/16 08:31:15;;;;;;;8.38;3.63;;;11.20;99.90;;;;;;4986642;28;20088;-72
2022/11/16 08:33:41;;;;;;;9.23;4.38;;;11.20;99.90;;;;;;5003339;28;20131;-71
2022/11/16 08:36:11;;;;;;;7.45;3.10;;;11.20;99.90;;;;;;5002647;28;20034;-72
2022/11/16 08:38:39;;;;;;;5.90;3.35;;;11.30;99.90;;;;;;4983911;28;20044;-72
2022/11/16 08:41:06;;;;;;;12.07;2.75;;;11.20;99.90;;;;;;4998304;28;20026;-73
2022/11/16 08:43:32;;;;;;;6.80;3.95;;;11.30;99.90;;;;;;5006999;28;20033;-72
2022/11/16 08:45:59;;;;;;;7.40;3.33;;;11.40;99.90;;;;;;5003963;28;20372;-73
2022/11/16 08:48:25;;;;;;;23.42;3.78;;;11.40;99.90;;;;;;5003744;28;20030;-72
2022/11/16 08:50:50;;;;;;;9.60;2.95;;;11.50;99.90;;;;;;5000728;28;20040;-72
2022/11/16 08:53:16;;;;;;;7.30;1.88;;;11.60;99.90;;;;;;4996235;28;20038;-73
2022/11/16 08:55:42;;;;;;;13.30;3.75;;;11.60;99.90;;;;;;5002619;28;20041;-72
2022/11/16 08:58:09;;;;;;;6.00;3.05;;;11.70;99.90;;;;;;5009713;28;20476;-73
2022/11/16 09:00:36;;;;;;;7.30;3.03;;;11.70;99.90;;;;;;5002624;28;20118;-73
2022/11/16 09:03:01;;;;;;;10.52;3.10;;;11.80;99.90;;;;;;5008364;28;20075;-72
2022/11/16 09:05:28;;;;;;;5.30;2.53;;;11.90;99.90;;;;;;5003510;28;20042;-72
2022/11/16 09:07:54;;;;;;;4.78;2.75;;;12.00;99.90;;;;;;5007788;28;20030;-72
2022/11/16 09:10:21;;;;;;;4.30;2.78;;;12.20;99.90;;;;;;5002124;28;20029;-72
2022/11/16 09:12:51;;;;;;;5.53;2.65;;;12.40;99.90;;;;;;5009876;28;20026;-73
2022/11/16 09:15:18;;;;;;;8.82;2.55;;;12.50;99.90;;;;;;5002033;28;20045;-74
2022/11/16 09:17:44;;;;;;;10.95;1.80;;;12.70;99.90;;;;;;5009635;28;20022;-72
2022/11/16 09:20:10;;;;;;;5.25;1.80;;;12.70;99.90;;;;;;5002401;28;20029;-73
2022/11/16 09:22:36;;;;;;;2.83;1.63;;;12.70;99.90;;;;;;4996712;28;20168;-73
2022/11/16 09:25:02;;;;;;;7.53;1.48;;;12.70;99.90;;;;;;4993013;28;20109;-73
2022/11/16 09:27:28;;;;;;;3.80;1.38;;;12.90;99.90;;;;;;4990205;28;20239;-73
2022/11/16 09:29:54;;;;;;;9.73;1.60;;;13.00;99.90;;;;;;5000277;28;20038;-73
2022/11/16 09:32:19;;;;;;;2.58;1.05;;;13.00;99.90;;;;;;5010975;28;20029;-72
2022/11/16 09:34:45;;;;;;;3.88;1.27;;;12.80;99.90;;;;;;5000964;28;20038;-72
2022/11/16 09:37:11;;;;;;;11.48;1.88;;;12.90;99.90;;;;;;5003800;28;20030;-73
2022/11/16 09:39:37;;;;;;;6.90;1.55;;;12.80;99.90;;;;;;5005044;28;20034;-72
2022/11/16 09:42:03;;;;;;;2.00;1.27;;;13.10;99.90;;;;;;4991396;28;20417;-73
2022/11/16 09:45:15;;;;;;;3.85;1.08;;;13.50;99.90;;;;;;4999000;28;20042;-72
2022/11/16 09:47:48;;;;;;;7.45;1.27;;;14.10;99.90;;;;;;4973141;28;20031;-72
2022/11/16 09:50:55;;;;;;;4.68;0.77;;;14.10;99.90;;;;;;4991159;28;20045;-73
2022/11/16 09:53:38;;;;;;;6.50;1.15;;;14.20;99.90;;;;;;4996287;28;20045;-73
2022/11/16 09:56:19;;;;;;;2.08;0.65;;;14.50;99.90;;;;;;4999070;28;20038;-72
2022/11/16 09:59:24;;;;;;;1.80;0.77;;;15.60;99.90;;;;;;4996930;28;20386;-72
2022/11/16 10:02:23;;;;;;;1.98;0.63;;;15.20;99.90;;;;;;5008733;28;20038;-71
2022/11/16 10:05:10;;;;;;;10.25;0.95;;;15.10;99.90;;;;;;4999178;28;20038;-72
2022/11/16 10:07:43;;;;;;;1.45;0.52;;;14.80;99.90;;;;;;5009028;28;20033;-72
2022/11/16 10:10:35;;;;;;;1.88;0.45;;;13.90;99.90;;;;;;4990152;28;20069;-71
2022/11/16 10:13:48;;;;;;;1.88;1.00;;;13.60;99.90;;;;;;4977115;28;20075;-71
2022/11/16 10:16:34;;;;;;;2.05;0.77;;;13.50;99.90;;;;;;4996003;28;20049;-72
2022/11/16 10:19:38;;;;;;;6.68;0.65;;;13.40;99.90;;;;;;4998720;28;20038;-72
2022/11/16 10:22:42;;;;;;;1.63;0.90;;;13.30;99.90;;;;;;4989494;28;20030;-72
2022/11/16 10:25:21;;;;;;;2.60;0.65;;;13.40;99.90;;;;;;4991267;28;20104;-71
2022/11/16 10:28:15;;;;;;;3.13;0.98;;;13.40;99.90;;;;;;4991565;28;20041;-73
2022/11/16 10:30:54;;;;;;;4.32;0.82;;;13.50;99.90;;;;;;5002380;28;20226;-72
2022/11/16 10:33:24;;;;;;;0.80;0.77;;;13.30;99.90;;;;;;5002324;28;20030;-73
2022/11/16 10:35:54;;;;;;;3.55;1.10;;;13.30;99.90;;;;;;4997385;28;20482;-72
2022/11/16 10:38:27;;;;;;;2.85;1.20;;;13.50;99.90;;;;;;4995384;28;20030;-74
2022/11/16 10:41:19;;;;;;;7.05;0.85;;;13.60;99.90;;;;;;5000963;28;20029;-73
2022/11/16 10:43:46;;;;;;;4.10;0.77;;;13.90;99.90;;;;;;4993494;28;20706;-73
2022/11/16 10:46:35;;;;;;;1.20;0.77;;;14.60;99.90;;;;;;4995678;28;20033;-75
2022/11/16 10:49:11;;;;;;;2.50;0.73;;;15.10;99.90;;;;;;4999180;28;20116;-74
2022/11/16 10:51:37;;;;;;;2.90;0.60;;;15.50;99.90;;;;;;5006512;28;20038;-74
2022/11/16 10:54:15;;;;;;;11.98;1.25;;;15.70;99.90;;;;;;5003661;28;20494;-74
2022/11/16 10:56:50;;;;;;;1.10;0.63;;;16.00;99.90;;;;;;4996695;28;20129;-74
2022/11/16 10:59:20;;;;;;;5.47;1.55;;;16.30;99.90;;;;;;4991020;28;20034;-75
2022/11/16 11:01:57;;;;;;;1.42;0.55;;;16.50;99.90;;;;;;4996006;28;20080;-72
2022/11/16 11:04:28;;;;;;;3.53;0.95;;;17.10;99.90;;;;;;4996179;28;20092;-73
2022/11/16 11:07:28;;;;;;;2.95;0.75;;;17.00;99.90;;;;;;4988943;28;20034;-73
2022/11/16 11:09:54;;;;;;;2.35;0.80;;;17.10;99.90;;;;;;4987827;28;20049;-73
2022/11/16 11:12:37;;;;;;;1.88;0.90;;;17.10;99.90;;;;;;4999008;28;20439;-74
2022/11/16 11:15:24;;;;;;;2.22;0.98;;;17.30;99.90;;;;;;5004851;28;20030;-73
2022/11/16 11:18:14;;;;;;;2.78;0.60;;;17.00;99.90;;;;;;4998885;28;20046;-73
2022/11/16 11:20:43;;;;;;;2.15;0.52;;;18.00;99.90;;;;;;4981549;28;20027;-72
2022/11/16 11:23:22;;;;;;;5.90;1.42;;;17.60;99.90;;;;;;5000560;28;20533;-73
2022/11/16 11:26:27;;;;;;;3.58;0.93;;;17.10;99.90;;;;;;4993563;28;20039;-72
2022/11/16 11:28:54;;;;;;;2.72;1.10;;;16.30;99.90;;;;;;4990854;28;20069;-72
2022/11/16 11:31:27;;;;;;;3.33;0.60;;;17.40;99.90;;;;;;4993521;28;20417;-73
2022/11/16 11:34:23;;;;;;;6.60;0.93;;;17.30;99.90;;;;;;4992797;28;20069;-73
2022/11/16 11:36:58;;;;;;;1.90;0.55;;;18.30;99.90;;;;;;5002018;28;20501;-72
2022/11/16 11:39:28;;;;;;;2.55;0.95;;;17.60;99.90;;;;;;4997847;28;20038;-73
2022/11/16 11:42:06;;;;;;;2.08;0.70;;;16.80;99.90;;;;;;4984306;28;20033;-72
2022/11/16 11:44:49;;;;;;;0.75;0.40;;;16.00;99.90;;;;;;5008639;28;20041;-72
2022/11/16 11:47:43;;;;;;;3.20;0.82;;;15.20;99.90;;;;;;5008037;28;20038;-71
2022/11/16 11:50:55;;;;;;;0.80;0.63;;;15.10;99.90;;;;;;4972961;28;20490;-72
2022/11/16 11:53:53;;;;;;;4.32;0.65;;;14.90;99.90;;;;;;4983828;28;20038;-72
2022/11/16 11:56:20;;;;;;;2.67;0.98;;;15.50;99.90;;;;;;4987086;28;20114;-71
2022/11/16 11:58:48;;;;;;;5.05;0.98;;;15.30;99.90;;;;;;5000964;28;20109;-71
2022/11/16 12:01:48;;;;;;;1.45;0.70;;;14.90;99.90;;;;;;4991475;28;20030;-72
2022/11/16 12:04:56;;;;;;;2.70;1.20;;;15.40;99.90;;;;;;4999243;28;20464;-72
2022/11/16 12:07:50;;;;;;;1.65;0.63;;;15.40;99.90;;;;;;4995606;28;20046;-73
2022/11/16 12:10:40;;;;;;;2.13;0.63;;;15.00;99.90;;;;;;4978577;28;20042;-72
2022/11/16 12:13:37;;;;;;;7.07;0.60;;;15.60;99.90;;;;;;4993082;28;20057;-72
2022/11/16 12:17:04;;;;;;;1.55;0.43;;;16.60;99.90;;;;;;4988207;28;20486;-73
2022/11/16 12:19:48;;;;;;;5.10;0.70;;;16.90;99.90;;;;;;4990134;28;20054;-75
2022/11/16 12:22:20;;;;;;;1.77;0.65;;;16.60;99.90;;;;;;4994303;28;20038;-74
2022/11/16 12:25:07;;;;;;;14.40;1.42;;;16.80;99.90;;;;;;5008404;28;20034;-73
2022/11/16 12:27:42;;;;;;;1.58;0.55;;;16.20;99.90;;;;;;5000614;28;20461;-71
2022/11/16 12:30:16;;;;;;;3.92;1.05;;;16.00;99.90;;;;;;4976823;28;20027;-73
2022/11/16 12:33:09;;;;;;;5.68;0.77;;;15.80;99.90;;;;;;4999586;28;20094;-72
2022/11/16 12:35:55;;;;;;;3.85;0.52;;;15.40;99.90;;;;;;4987090;28;20379;-74
2022/11/16 12:38:45;;;;;;;1.90;0.50;;;15.00;99.90;;;;;;5014537;28;20026;-75
2022/11/16 12:41:30;;;;;;;2.05;0.60;;;14.60;99.90;;;;;;5002824;28;20060;-74
2022/11/16 12:44:04;;;;;;;0.40;0.40;;;14.40;99.90;;;;;;5003782;28;20030;-73
2022/11/16 12:46:35;;;;;;;1.95;0.60;;;14.30;99.90;;;;;;4991599;28;20042;-75
2022/11/16 12:49:20;;;;;;;1.25;0.80;;;14.40;99.90;;;;;;5002667;28;20105;-75
2022/11/16 12:52:32;;;;;;;0.88;0.40;;;14.30;99.90;;;;;;5005491;28;20169;-75
2022/11/16 12:55:33;;;;;;;4.07;1.52;;;14.10;99.90;;;;;;5003557;28;20046;-76
2022/11/16 12:58:37;;;;;;;2.78;0.75;;;14.20;99.90;;;;;;4996262;28;20563;-76
2022/11/16 13:01:21;;;;;;;0.70;0.30;;;14.30;99.90;;;;;;5008463;28;20273;-74
2022/11/16 13:03:53;;;;;;;2.78;0.77;;;14.20;99.90;;;;;;4998835;28;20116;-74
2022/11/16 13:07:15;;;;;;;1.20;0.65;;;14.00;99.90;;;;;;5006426;28;20121;-73
2022/11/16 13:09:48;;;;;;;3.92;1.13;;;13.90;99.90;;;;;;4997223;28;20030;-76
2022/11/16 13:12:22;;;;;;;2.28;0.73;;;14.00;99.90;;;;;;4994317;28;20449;-76
2022/11/16 13:14:52;;;;;;;1.08;0.60;;;14.40;99.90;;;;;;5002218;28;20087;-78
2022/11/16 13:17:37;;;;;;;0.70;0.55;;;14.80;99.90;;;;;;5003538;28;20129;-75
2022/11/16 13:20:43;;;;;;;2.45;1.15;;;15.00;99.90;;;;;;5009707;28;20025;-76
2022/11/16 13:23:27;;;;;;;6.53;0.55;;;14.90;99.90;;;;;;4991651;28;20034;-77
2022/11/16 13:26:17;;;;;;;2.80;0.73;;;14.60;99.90;;;;;;4991961;28;20030;-77
2022/11/16 13:29:21;;;;;;;3.53;0.85;;;14.40;99.90;;;;;;5002847;28;20038;-78
2022/11/16 13:32:11;;;;;;;1.58;0.73;;;14.20;99.90;;;;;;5007039;28;20038;-76
2022/11/16 13:34:39;;;;;;;2.15;0.75;;;14.10;99.90;;;;;;5007438;28;20041;-74
2022/11/16 13:37:36;;;;;;;2.63;0.85;;;14.40;99.90;;;;;;5002757;28;20414;-75
2022/11/16 13:40:03;;;;;;;6.38;2.17;;;15.20;99.90;;;;;;5009880;28;20080;-73
2022/11/16 13:42:53;;;;;;;3.33;1.48;;;15.70;99.90;;;;;;4999417;28;20053;-74
2022/11/16 13:45:21;;;;;;;4.47;1.25;;;16.10;99.90;;;;;;4966199;28;20057;-72
2022/11/16 13:47:51;;;;;;;4.18;0.80;;;16.20;99.90;;;;;;4998050;28;20034;-77
2022/11/16 13:50:21;;;;;;;3.45;0.73;;;15.70;99.90;;;;;;4990041;28;20085;-76
2022/11/16 13:52:50;;;;;;;5.68;0.75;;;15.60;99.90;;;;;;5015066;28;20107;-79
2022/11/16 13:55:30;;;;;;;2.38;0.98;;;15.80;99.90;;;;;;5009596;28;20095;-77
2022/11/16 13:57:58;;;;;;;1.10;0.70;;;15.70;99.90;;;;;;5014974;28;20058;-72
2022/11/16 14:00:39;;;;;;;1.20;0.57;;;15.50;99.90;;;;;;5008565;28;20041;-78
2022/11/16 14:03:17;;;;;;;14.07;5.75;;;15.70;99.90;;;;;;5001408;28;20040;-85
2022/11/16 14:05:48;;;;;;;4.25;0.90;;;15.80;99.90;;;;;;5007352;28;20042;-78